Time;durP1;ratioP1;P1;durP2;ratioP2;P2;SDS_P1;SDS_P2;PMS_P1;PMS_P2;Temp;Humidity;BMP_temperature;BMP_pressure;BME280_temperature;BME280_humidity;BME280_pressure;Samples;Min_cycle;Max_cycle;Signal;HPM_P1;HPM_P2
2021/06/01 00:01:24;;;;;;;7.00;5.30;;;10.00;78.10;;;;;;5033683;28;20457;-56
2021/06/01 00:03:50;;;;;;;10.07;4.93;;;10.00;78.20;;;;;;5035186;28;20422;-56
2021/06/01 00:06:16;;;;;;;5.67;4.47;;;9.90;79.30;;;;;;5037439;28;20431;-56
2021/06/01 00:08:42;;;;;;;4.83;4.40;;;9.90;79.40;;;;;;5047413;28;20174;-54
2021/06/01 00:11:10;;;;;;;4.60;4.20;;;9.90;79.80;;;;;;5040506;28;20426;-55
2021/06/01 00:13:36;;;;;;;5.60;4.40;;;9.90;79.90;;;;;;5041128;28;20429;-56
2021/06/01 00:16:03;;;;;;;5.73;5.13;;;9.80;80.70;;;;;;5037085;28;20455;-56
2021/06/01 00:18:29;;;;;;;5.43;4.57;;;9.80;80.60;;;;;;5047534;28;20797;-56
2021/06/01 00:20:55;;;;;;;5.43;4.33;;;9.80;80.90;;;;;;5044715;28;20975;-56
2021/06/01 00:23:21;;;;;;;5.87;4.53;;;9.70;80.80;;;;;;5029338;28;20180;-56
2021/06/01 00:25:47;;;;;;;5.40;4.80;;;9.70;81.20;;;;;;5036362;28;20198;-56
2021/06/01 00:28:13;;;;;;;4.93;4.43;;;9.70;81.70;;;;;;5041722;28;20426;-56
2021/06/01 00:30:40;;;;;;;5.20;4.40;;;9.60;82.20;;;;;;5027266;28;20568;-56
2021/06/01 00:33:07;;;;;;;5.50;4.40;;;9.60;82.10;;;;;;5038781;28;20192;-56
2021/06/01 00:35:34;;;;;;;8.50;4.60;;;9.60;82.60;;;;;;5043396;28;20437;-55
2021/06/01 00:38:02;;;;;;;5.43;4.57;;;9.60;82.80;;;;;;5039720;28;20519;-56
2021/06/01 00:40:28;;;;;;;5.40;4.17;;;9.50;82.60;;;;;;5036539;28;20469;-56
2021/06/01 00:42:55;;;;;;;5.50;4.63;;;9.50;83.10;;;;;;5034280;28;20432;-55
2021/06/01 00:45:22;;;;;;;12.67;5.10;;;9.50;83.70;;;;;;5048474;28;20426;-56
2021/06/01 00:47:48;;;;;;;7.40;4.50;;;9.40;84.00;;;;;;5043439;28;20433;-55
2021/06/01 00:50:15;;;;;;;6.67;4.70;;;9.40;84.90;;;;;;5044763;28;20519;-55
2021/06/01 00:52:41;;;;;;;4.73;4.07;;;9.30;85.10;;;;;;5031928;28;20218;-56
2021/06/01 00:55:07;;;;;;;5.30;4.50;;;9.30;85.40;;;;;;5043328;28;20453;-56
2021/06/01 00:57:34;;;;;;;6.40;4.90;;;9.30;85.40;;;;;;5046110;28;20906;-55
2021/06/01 01:00:00;;;;;;;5.33;4.60;;;9.30;86.00;;;;;;5048077;28;20471;-56
2021/06/01 01:02:27;;;;;;;6.27;4.63;;;9.20;85.80;;;;;;5031435;28;20456;-56
2021/06/01 01:04:53;;;;;;;5.77;4.80;;;9.20;86.30;;;;;;5043888;28;20179;-55
2021/06/01 01:07:38;;;;;;;4.70;4.20;;;9.20;86.80;;;;;;5042400;28;20922;-56
2021/06/01 01:10:06;;;;;;;6.40;5.10;;;9.10;86.80;;;;;;5048298;28;20800;-56
2021/06/01 01:12:41;;;;;;;8.97;4.53;;;9.10;86.90;;;;;;5026959;28;20441;-57
2021/06/01 01:15:08;;;;;;;5.80;4.40;;;9.00;87.00;;;;;;5037326;28;20918;-56
2021/06/01 01:17:43;;;;;;;7.13;5.00;;;9.00;87.30;;;;;;5036259;28;20418;-56
2021/06/01 01:20:46;;;;;;;5.13;4.40;;;9.00;87.60;;;;;;5047929;28;20467;-56
2021/06/01 01:23:17;;;;;;;6.60;4.90;;;8.90;89.10;;;;;;5048079;28;20425;-56
2021/06/01 01:25:48;;;;;;;4.67;4.27;;;8.90;89.00;;;;;;5044419;28;20437;-57
2021/06/01 01:28:50;;;;;;;9.33;4.77;;;8.80;89.70;;;;;;5044574;28;20958;-57
2021/06/01 01:31:44;;;;;;;5.87;4.90;;;8.80;90.00;;;;;;5043488;28;20658;-56
2021/06/01 01:34:11;;;;;;;5.63;4.30;;;8.80;90.10;;;;;;5036607;28;20489;-56
2021/06/01 01:36:37;;;;;;;6.00;4.70;;;8.70;90.30;;;;;;5036373;28;20434;-54
2021/06/01 01:39:06;;;;;;;6.40;4.83;;;8.70;90.20;;;;;;5047033;28;20536;-56
2021/06/01 01:41:39;;;;;;;5.40;4.63;;;8.60;90.10;;;;;;5027397;28;20469;-55
2021/06/01 01:44:09;;;;;;;8.13;4.93;;;8.60;90.40;;;;;;5023809;28;20865;-55
2021/06/01 01:49:11;;;;;;;10.33;5.10;;;8.50;90.70;;;;;;5041554;28;20516;-56
2021/06/01 01:51:43;;;;;;;5.90;5.27;;;8.50;90.80;;;;;;5042455;28;20434;-56
2021/06/01 01:54:09;;;;;;;5.87;4.63;;;8.50;90.80;;;;;;5034186;28;20428;-57
2021/06/01 01:56:38;;;;;;;5.67;4.33;;;8.40;90.90;;;;;;5038147;28;20458;-56
2021/06/01 01:59:06;;;;;;;5.43;4.83;;;8.40;91.10;;;;;;5033089;28;20477;-56
2021/06/01 02:01:36;;;;;;;6.83;4.67;;;8.40;91.50;;;;;;5033026;28;21162;-55
2021/06/01 02:04:03;;;;;;;7.70;5.40;;;8.30;91.40;;;;;;5040166;28;20447;-55
2021/06/01 02:06:29;;;;;;;5.67;4.77;;;8.30;91.50;;;;;;5048072;28;20429;-56
2021/06/01 02:08:55;;;;;;;5.43;4.67;;;8.30;91.10;;;;;;5022142;28;20530;-56
2021/06/01 02:11:21;;;;;;;8.50;4.80;;;8.20;91.20;;;;;;5028887;28;20430;-56
2021/06/01 02:13:59;;;;;;;5.40;4.90;;;8.20;91.70;;;;;;5044512;28;20171;-55
2021/06/01 02:16:26;;;;;;;7.40;4.67;;;8.10;91.60;;;;;;5038039;28;20754;-56
2021/06/01 02:18:52;;;;;;;5.50;4.57;;;8.10;91.70;;;;;;5039339;28;20435;-57
2021/06/01 02:21:46;;;;;;;5.97;5.10;;;8.10;91.90;;;;;;5044577;28;20497;-56
2021/06/01 02:24:29;;;;;;;6.93;5.37;;;8.10;92.20;;;;;;5021247;28;20485;-55
2021/06/01 02:27:02;;;;;;;7.43;4.80;;;8.00;92.30;;;;;;5041215;28;20441;-57
2021/06/01 02:29:47;;;;;;;10.87;5.33;;;8.00;92.30;;;;;;5044589;28;20520;-57
2021/06/01 02:32:14;;;;;;;9.40;5.53;;;8.00;92.40;;;;;;5038917;28;20447;-55
2021/06/01 02:34:41;;;;;;;8.33;5.00;;;8.00;92.50;;;;;;5038669;28;20425;-54
2021/06/01 02:37:08;;;;;;;7.23;5.20;;;8.00;92.40;;;;;;5036331;28;20426;-56
2021/06/01 02:39:35;;;;;;;6.93;4.80;;;7.90;92.40;;;;;;5039902;28;20791;-56
2021/06/01 02:42:03;;;;;;;5.70;5.10;;;7.90;92.40;;;;;;5029087;28;20497;-57
2021/06/01 02:44:30;;;;;;;7.23;5.20;;;7.90;92.50;;;;;;5040589;28;20480;-56
2021/06/01 02:46:57;;;;;;;5.83;4.87;;;7.90;92.50;;;;;;5039412;28;20435;-56
2021/06/01 02:49:23;;;;;;;6.50;5.10;;;7.80;92.80;;;;;;5064240;22;20465;-56
2021/06/01 02:51:50;;;;;;;5.73;4.73;;;7.80;93.00;;;;;;5008129;28;21001;-58
2021/06/01 02:54:16;;;;;;;7.10;4.70;;;7.80;93.10;;;;;;5008105;28;20422;-58
2021/06/01 02:56:43;;;;;;;6.70;5.10;;;7.80;93.10;;;;;;5016826;28;20441;-58
2021/06/01 02:59:09;;;;;;;5.90;4.77;;;7.70;93.20;;;;;;5027543;28;20867;-58
2021/06/01 03:01:35;;;;;;;8.63;5.30;;;7.70;93.40;;;;;;5007407;28;20486;-58
2021/06/01 03:04:01;;;;;;;7.47;5.37;;;7.60;93.80;;;;;;4992538;28;20459;-58
2021/06/01 03:06:28;;;;;;;8.73;5.17;;;7.60;93.80;;;;;;5005351;28;20175;-58
2021/06/01 03:08:55;;;;;;;7.43;5.47;;;7.60;93.80;;;;;;5006526;28;20263;-58
2021/06/01 03:11:21;;;;;;;6.80;5.00;;;7.60;93.90;;;;;;5007898;28;20502;-58
2021/06/01 03:13:48;;;;;;;9.93;5.37;;;7.50;94.00;;;;;;4999274;28;20514;-59
2021/06/01 03:16:15;;;;;;;6.20;5.33;;;7.50;94.00;;;;;;5008591;28;20431;-58
2021/06/01 03:18:42;;;;;;;6.93;4.97;;;7.50;94.20;;;;;;4992703;28;20564;-62
2021/06/01 03:21:08;;;;;;;5.57;4.57;;;7.50;94.50;;;;;;5008775;28;20473;-58
2021/06/01 03:23:33;;;;;;;6.00;5.00;;;7.40;94.30;;;;;;5002542;28;20463;-58
2021/06/01 03:25:59;;;;;;;5.20;4.70;;;7.40;94.20;;;;;;5001003;28;20482;-58
2021/06/01 03:28:26;;;;;;;6.60;5.07;;;7.40;94.20;;;;;;4992161;28;20179;-58
2021/06/01 03:30:52;;;;;;;7.13;5.40;;;7.40;94.30;;;;;;5001701;28;20691;-58
2021/06/01 03:33:18;;;;;;;6.20;4.83;;;7.30;94.20;;;;;;5009005;28;20427;-59
2021/06/01 03:35:44;;;;;;;8.00;4.70;;;7.30;94.10;;;;;;5010170;28;20427;-59
2021/06/01 03:38:10;;;;;;;5.33;4.43;;;7.20;94.10;;;;;;4992846;28;20515;-59
2021/06/01 03:40:37;;;;;;;6.30;4.70;;;7.20;94.30;;;;;;5005046;28;20550;-59
2021/06/01 03:43:03;;;;;;;9.07;5.07;;;7.20;94.60;;;;;;5002832;28;20537;-59
2021/06/01 03:45:29;;;;;;;9.00;5.00;;;7.20;94.70;;;;;;4996439;28;20431;-59
2021/06/01 03:47:55;;;;;;;6.83;4.70;;;7.20;94.90;;;;;;5007323;28;20469;-59
2021/06/01 03:50:21;;;;;;;7.17;5.20;;;7.10;94.90;;;;;;4990621;28;20224;-59
2021/06/01 03:52:47;;;;;;;6.50;5.07;;;7.20;95.10;;;;;;5003404;28;20180;-59
2021/06/01 03:55:14;;;;;;;5.27;4.60;;;7.20;95.00;;;;;;5004926;28;20427;-59
2021/06/01 03:57:44;;;;;;;5.33;4.40;;;7.20;95.00;;;;;;5006533;28;20431;-59
2021/06/01 04:00:11;;;;;;;10.40;5.23;;;7.10;95.10;;;;;;5007888;28;20489;-59
2021/06/01 04:02:37;;;;;;;8.57;5.60;;;7.10;95.20;;;;;;4984819;28;20466;-62
2021/06/01 04:05:04;;;;;;;8.33;5.30;;;7.20;95.40;;;;;;5006344;28;20423;-59
2021/06/01 04:07:30;;;;;;;6.10;5.23;;;7.20;95.50;;;;;;5013313;28;20424;-60
2021/06/01 04:09:56;;;;;;;6.67;4.97;;;7.20;95.50;;;;;;4999757;28;20485;-59
2021/06/01 04:12:22;;;;;;;8.80;5.40;;;7.30;95.30;;;;;;5008473;28;20435;-60
2021/06/01 04:14:47;;;;;;;7.60;5.13;;;7.30;95.30;;;;;;5019196;28;20183;-60
2021/06/01 04:17:13;;;;;;;7.47;5.60;;;7.30;95.00;;;;;;5014888;28;20203;-58
2021/06/01 04:19:39;;;;;;;7.00;5.30;;;7.40;94.50;;;;;;5014666;28;20666;-58
2021/06/01 04:22:05;;;;;;;13.70;6.40;;;7.40;94.50;;;;;;5001922;28;20208;-57
2021/06/01 04:24:31;;;;;;;11.03;6.50;;;7.50;94.70;;;;;;5009988;28;20183;-58
2021/06/01 04:27:01;;;;;;;11.77;5.90;;;7.50;94.80;;;;;;4986755;28;20653;-58
2021/06/01 04:29:28;;;;;;;8.50;5.97;;;7.50;95.10;;;;;;4980000;28;20638;-60
2021/06/01 04:31:53;;;;;;;7.63;5.03;;;7.60;94.90;;;;;;5003881;28;20467;-61
2021/06/01 04:34:19;;;;;;;8.23;5.90;;;7.60;94.90;;;;;;4983777;28;21435;-60
2021/06/01 04:36:45;;;;;;;6.40;5.80;;;7.70;94.80;;;;;;4984714;28;20180;-61
2021/06/01 04:39:11;;;;;;;7.30;5.60;;;7.70;94.60;;;;;;4985467;28;20308;-60
2021/06/01 04:41:37;;;;;;;7.83;5.43;;;7.80;94.40;;;;;;4982410;28;20262;-60
2021/06/01 04:44:03;;;;;;;9.30;6.90;;;7.90;94.20;;;;;;5004400;28;20255;-60
2021/06/01 04:46:29;;;;;;;7.93;5.93;;;7.90;94.10;;;;;;5003883;28;20446;-60
2021/06/01 04:48:55;;;;;;;9.37;6.03;;;8.00;94.30;;;;;;5001167;28;20443;-59
2021/06/01 04:51:21;;;;;;;8.00;5.43;;;8.00;94.00;;;;;;5000397;28;20214;-60
2021/06/01 04:53:51;;;;;;;9.17;6.63;;;8.10;93.60;;;;;;4984617;28;20177;-60
2021/06/01 04:56:18;;;;;;;11.90;6.63;;;8.20;93.40;;;;;;4988987;28;20569;-61
2021/06/01 04:58:44;;;;;;;5.80;5.27;;;8.30;93.20;;;;;;5004650;28;20935;-60
2021/06/01 05:01:10;;;;;;;9.77;5.27;;;8.30;93.30;;;;;;5001784;28;20613;-60
2021/06/01 05:03:37;;;;;;;6.53;5.53;;;8.40;93.00;;;;;;5001373;28;20211;-61
2021/06/01 05:06:03;;;;;;;7.63;5.00;;;8.50;92.60;;;;;;5005359;28;20485;-60
2021/06/01 05:08:28;;;;;;;6.47;4.83;;;8.60;92.00;;;;;;4984245;28;20427;-61
2021/06/01 05:10:54;;;;;;;5.90;5.10;;;8.70;91.60;;;;;;5006376;28;20195;-60
2021/06/01 05:13:20;;;;;;;8.80;4.90;;;8.80;91.10;;;;;;5009120;28;20208;-61
2021/06/01 05:15:48;;;;;;;6.53;5.47;;;8.90;90.70;;;;;;5003503;28;20184;-60
2021/06/01 05:18:14;;;;;;;6.47;4.80;;;8.90;90.50;;;;;;5008529;28;20723;-59
2021/06/01 05:20:40;;;;;;;5.93;4.73;;;9.00;90.60;;;;;;4983100;28;20550;-59
2021/06/01 05:23:05;;;;;;;6.93;4.57;;;9.10;91.20;;;;;;5010206;28;20993;-59
2021/06/01 05:25:31;;;;;;;8.50;4.97;;;9.20;91.20;;;;;;5010207;28;20624;-59
2021/06/01 05:27:57;;;;;;;8.20;4.73;;;9.30;91.00;;;;;;4993470;28;20252;-60
2021/06/01 05:33:22;;;;;;;5.37;4.67;;;9.50;90.00;;;;;;4997373;28;20200;-59
2021/06/01 05:35:57;;;;;;;5.37;4.73;;;9.70;88.80;;;;;;5010532;28;20509;-59
2021/06/01 05:38:27;;;;;;;6.93;4.90;;;9.80;88.30;;;;;;5008375;28;20510;-59
2021/06/01 05:40:54;;;;;;;6.43;4.80;;;9.90;86.70;;;;;;5007318;28;20455;-60
2021/06/01 05:43:20;;;;;;;8.40;5.07;;;9.90;85.00;;;;;;5006667;28;20438;-61
2021/06/01 05:45:46;;;;;;;12.60;6.80;;;10.10;84.00;;;;;;5007824;28;20432;-59
2021/06/01 05:48:12;;;;;;;6.80;5.43;;;10.10;85.60;;;;;;5011396;28;20423;-59
2021/06/01 05:50:40;;;;;;;5.83;5.20;;;10.20;86.40;;;;;;5007767;28;20217;-59
2021/06/01 05:53:07;;;;;;;7.37;5.93;;;10.30;87.10;;;;;;4992244;28;20782;-60
2021/06/01 05:55:33;;;;;;;5.80;5.07;;;10.40;86.00;;;;;;5011046;28;20407;-59
2021/06/01 05:57:59;;;;;;;6.60;5.53;;;10.50;85.70;;;;;;4990709;28;20498;-60
2021/06/01 06:00:26;;;;;;;7.27;4.83;;;10.60;86.50;;;;;;4988882;28;20879;-59
2021/06/01 06:02:52;;;;;;;9.30;6.03;;;10.80;87.40;;;;;;5001451;28;20420;-58
2021/06/01 06:05:18;;;;;;;7.40;5.30;;;10.90;86.10;;;;;;4998318;28;20807;-60
2021/06/01 06:07:44;;;;;;;6.53;5.43;;;11.00;85.10;;;;;;4997425;28;20176;-61
2021/06/01 06:10:10;;;;;;;6.10;4.73;;;11.20;85.70;;;;;;5004621;28;20235;-59
2021/06/01 06:12:36;;;;;;;5.47;4.70;;;11.20;86.10;;;;;;5010071;28;20223;-60
2021/06/01 06:15:04;;;;;;;6.83;5.23;;;11.40;86.40;;;;;;5004971;28;20423;-60
2021/06/01 06:18:03;;;;;;;7.40;5.10;;;11.50;84.60;;;;;;5007694;28;20428;-60
2021/06/01 06:20:31;;;;;;;4.90;4.40;;;11.60;82.30;;;;;;4996160;28;20521;-59
2021/06/01 06:22:57;;;;;;;6.50;5.30;;;11.70;80.30;;;;;;5003641;28;20959;-60
2021/06/01 06:25:23;;;;;;;7.40;5.40;;;11.80;78.60;;;;;;4978520;28;20523;-59
2021/06/01 06:27:48;;;;;;;7.27;5.20;;;12.00;77.20;;;;;;4994788;28;20990;-60
2021/06/01 06:30:15;;;;;;;11.50;5.77;;;12.10;75.20;;;;;;5010201;28;20319;-60
2021/06/01 06:32:41;;;;;;;6.00;4.93;;;12.30;73.90;;;;;;5017285;28;20275;-60
2021/06/01 06:35:07;;;;;;;6.30;4.80;;;12.50;71.60;;;;;;5017120;28;20594;-59
2021/06/01 06:37:33;;;;;;;8.60;4.63;;;12.70;69.20;;;;;;5017539;28;20657;-59
2021/06/01 06:39:59;;;;;;;5.80;3.97;;;12.80;66.80;;;;;;4990729;28;20495;-59
2021/06/01 06:42:25;;;;;;;9.20;4.23;;;12.90;66.50;;;;;;4991218;28;20453;-61
2021/06/01 06:44:53;;;;;;;6.63;4.40;;;13.00;65.20;;;;;;5000415;28;20957;-60
2021/06/01 06:47:39;;;;;;;8.20;4.20;;;13.20;65.50;;;;;;4994454;28;20172;-60
2021/06/01 06:50:08;;;;;;;4.70;4.20;;;13.40;62.70;;;;;;5004888;28;20467;-59
2021/06/01 06:52:34;;;;;;;8.73;3.37;;;13.50;61.00;;;;;;5004335;28;20471;-60
2021/06/01 06:55:00;;;;;;;3.90;3.50;;;13.70;61.00;;;;;;4995050;28;20429;-60
2021/06/01 06:57:28;;;;;;;7.47;4.33;;;13.80;59.80;;;;;;4989274;28;20489;-60
2021/06/01 06:59:54;;;;;;;4.03;3.70;;;13.90;59.20;;;;;;5004619;28;20460;-61
2021/06/01 07:02:21;;;;;;;5.30;4.27;;;14.10;58.90;;;;;;4985542;28;20445;-59
2021/06/01 07:04:47;;;;;;;7.40;4.53;;;14.30;57.30;;;;;;4988323;28;20545;-59
2021/06/01 07:07:13;;;;;;;3.97;3.50;;;14.40;56.90;;;;;;5006131;28;20493;-60
2021/06/01 07:09:40;;;;;;;17.63;4.13;;;14.60;56.50;;;;;;5002469;28;20720;-61
2021/06/01 07:12:06;;;;;;;5.43;3.90;;;14.70;56.70;;;;;;5007981;28;20179;-60
2021/06/01 07:14:46;;;;;;;6.50;3.70;;;14.90;56.60;;;;;;5006302;28;20423;-60
2021/06/01 07:17:12;;;;;;;10.13;4.00;;;15.00;56.10;;;;;;4999944;28;20420;-59
2021/06/01 07:19:37;;;;;;;4.47;3.37;;;15.20;54.70;;;;;;4998395;28;20962;-61
2021/06/01 07:22:03;;;;;;;13.93;3.57;;;15.30;53.40;;;;;;5009185;28;20207;-60
2021/06/01 07:24:29;;;;;;;4.33;3.30;;;15.50;52.20;;;;;;5009446;28;20172;-60
2021/06/01 07:26:55;;;;;;;3.40;3.10;;;15.60;52.30;;;;;;5007767;28;20507;-59
2021/06/01 07:29:20;;;;;;;3.77;3.27;;;15.70;51.50;;;;;;5007681;28;20169;-60
2021/06/01 07:31:50;;;;;;;3.60;3.30;;;15.80;51.30;;;;;;4988332;28;20177;-60
2021/06/01 07:34:16;;;;;;;4.97;4.53;;;15.90;50.90;;;;;;5005964;28;20168;-61
2021/06/01 07:36:42;;;;;;;5.10;3.07;;;16.00;50.40;;;;;;5004214;28;20431;-60
2021/06/01 07:39:07;;;;;;;9.73;3.40;;;16.20;50.60;;;;;;5005408;28;20498;-59
2021/06/01 07:41:33;;;;;;;6.07;3.40;;;16.30;50.00;;;;;;4998984;28;20294;-60
2021/06/01 07:44:02;;;;;;;6.97;3.67;;;16.40;49.00;;;;;;4997663;28;20179;-60
2021/06/01 07:46:28;;;;;;;4.17;3.77;;;16.50;49.00;;;;;;5003639;28;20172;-61
2021/06/01 07:48:54;;;;;;;3.97;2.70;;;16.60;48.00;;;;;;5005533;28;20460;-61
2021/06/01 07:51:28;;;;;;;4.67;3.43;;;16.70;48.10;;;;;;5006765;28;20506;-59
2021/06/01 07:53:54;;;;;;;8.87;3.23;;;16.70;48.00;;;;;;5004435;28;20284;-60
2021/06/01 07:56:20;;;;;;;7.57;3.03;;;16.80;48.10;;;;;;4999481;28;20435;-60
2021/06/01 07:58:49;;;;;;;2.93;2.63;;;16.90;47.30;;;;;;5011408;28;20431;-61
2021/06/01 08:01:15;;;;;;;4.10;3.03;;;17.00;46.90;;;;;;4999574;28;20208;-61
2021/06/01 08:03:41;;;;;;;7.57;3.70;;;17.10;46.90;;;;;;5006172;28;20431;-61
2021/06/01 08:06:07;;;;;;;3.80;3.20;;;17.10;47.00;;;;;;4981361;28;20430;-60
2021/06/01 08:08:33;;;;;;;5.07;3.30;;;17.20;46.50;;;;;;4997822;28;20175;-60
2021/06/01 08:10:59;;;;;;;3.70;3.13;;;17.30;46.10;;;;;;4996553;28;20474;-61
2021/06/01 08:13:27;;;;;;;3.80;3.23;;;17.30;46.40;;;;;;5002173;28;20791;-60
2021/06/01 08:15:53;;;;;;;3.20;2.90;;;17.40;46.20;;;;;;4997815;28;20188;-62
2021/06/01 08:18:21;;;;;;;3.43;2.90;;;17.50;45.60;;;;;;4991703;28;20432;-60
2021/06/01 08:21:01;;;;;;;3.50;3.20;;;17.60;45.10;;;;;;4982237;28;20461;-62
2021/06/01 08:23:27;;;;;;;3.30;3.00;;;17.70;45.10;;;;;;4991440;28;20497;-61
2021/06/01 08:25:53;;;;;;;4.90;3.30;;;17.80;44.80;;;;;;4982410;28;20437;-63
2021/06/01 08:28:19;;;;;;;3.83;3.23;;;17.80;45.00;;;;;;4996697;28;20179;-60
2021/06/01 08:30:44;;;;;;;5.43;3.27;;;17.90;45.00;;;;;;4997081;28;21069;-59
2021/06/01 08:33:10;;;;;;;4.00;2.90;;;18.00;43.70;;;;;;4998260;28;20497;-60
2021/06/01 08:35:36;;;;;;;4.53;3.00;;;18.10;44.10;;;;;;4980880;28;20183;-61
2021/06/01 08:38:02;;;;;;;3.20;2.90;;;18.20;44.20;;;;;;4980598;28;20184;-61
2021/06/01 08:40:27;;;;;;;3.47;3.17;;;18.30;44.00;;;;;;5000127;28;20212;-61
2021/06/01 08:42:53;;;;;;;7.50;3.13;;;18.40;44.10;;;;;;4999052;28;20180;-61
2021/06/01 08:45:20;;;;;;;3.13;2.90;;;18.50;43.60;;;;;;5001184;28;20796;-60
2021/06/01 08:47:46;;;;;;;5.30;3.20;;;18.50;43.20;;;;;;4999123;28;20176;-60
2021/06/01 08:50:12;;;;;;;3.07;2.77;;;18.60;44.20;;;;;;5026171;22;21317;-58
2021/06/01 08:52:38;;;;;;;8.67;3.23;;;18.70;44.20;;;;;;5015872;28;20438;-59
2021/06/01 08:55:06;;;;;;;9.27;3.13;;;18.70;43.10;;;;;;5024555;28;20190;-61
2021/06/01 08:57:36;;;;;;;4.57;2.93;;;18.80;43.40;;;;;;5005762;28;20887;-57
2021/06/01 09:00:04;;;;;;;3.70;3.37;;;18.90;43.00;;;;;;5030280;28;20893;-64
2021/06/01 09:02:30;;;;;;;6.03;3.40;;;18.90;42.50;;;;;;5039894;28;20452;-61
2021/06/01 09:05:05;;;;;;;9.33;2.70;;;19.00;42.40;;;;;;5046829;28;20942;-57
2021/06/01 09:21:16;;;;;;;5.17;3.33;;;19.60;42.30;;;;;;5042732;28;21003;-60
2021/06/01 09:24:08;;;;;;;4.10;2.73;;;19.70;41.40;;;;;;5035592;28;20418;-62
2021/06/01 09:29:18;;;;;;;7.63;2.93;;;20.00;42.70;;;;;;5039966;28;20478;-58
2021/06/01 09:32:01;;;;;;;4.40;3.17;;;20.10;42.50;;;;;;5045044;28;20808;-60
2021/06/01 09:34:54;;;;;;;4.50;3.37;;;20.20;40.90;;;;;;5037601;28;20752;-61
2021/06/01 09:37:29;;;;;;;3.97;2.93;;;20.20;40.00;;;;;;5032058;28;20430;-59
2021/06/01 09:40:08;;;;;;;9.40;2.83;;;20.30;40.80;;;;;;5037839;28;20432;-56
2021/06/01 09:42:35;;;;;;;3.50;2.67;;;20.40;40.80;;;;;;5034173;28;20934;-60
2021/06/01 09:45:21;;;;;;;3.90;2.70;;;20.60;41.30;;;;;;5034782;28;20510;-61
2021/06/01 09:47:58;;;;;;;2.80;2.60;;;20.70;40.90;;;;;;5033496;28;20422;-59
2021/06/01 09:51:08;;;;;;;4.30;3.07;;;20.80;41.00;;;;;;5027695;28;20552;-60
2021/06/01 09:53:34;;;;;;;2.73;2.53;;;21.00;41.00;;;;;;5032351;28;20657;-62
2021/06/01 09:56:01;;;;;;;3.80;2.80;;;21.10;39.30;;;;;;5038796;28;20430;-59
2021/06/01 09:58:34;;;;;;;3.53;2.70;;;21.20;40.20;;;;;;5031827;28;20429;-58
2021/06/01 10:01:03;;;;;;;3.60;2.67;;;21.30;39.40;;;;;;5041039;28;20500;-59
2021/06/01 10:03:51;;;;;;;2.40;2.20;;;21.40;37.80;;;;;;5033487;28;20462;-59
2021/06/01 10:06:17;;;;;;;4.27;2.90;;;21.40;38.30;;;;;;5034222;28;20423;-57
2021/06/01 10:08:52;;;;;;;3.30;2.77;;;21.50;37.40;;;;;;5042381;28;20479;-61
2021/06/01 10:11:18;;;;;;;4.33;2.67;;;21.60;37.00;;;;;;5035735;28;20444;-60
2021/06/01 10:13:44;;;;;;;3.53;3.20;;;21.70;38.20;;;;;;5036094;28;20511;-60
2021/06/01 10:16:13;;;;;;;5.37;2.83;;;21.70;37.80;;;;;;5040687;28;20918;-61
2021/06/01 10:18:41;;;;;;;3.70;2.60;;;21.80;36.90;;;;;;5039698;28;20508;-61
2021/06/01 10:21:10;;;;;;;4.47;3.00;;;21.90;36.10;;;;;;5034121;28;20477;-61
2021/06/01 10:23:39;;;;;;;3.63;2.90;;;21.90;36.10;;;;;;5035962;28;20515;-62
2021/06/01 10:26:08;;;;;;;2.80;2.47;;;21.80;37.30;;;;;;5034993;28;20484;-59
2021/06/01 10:28:36;;;;;;;9.30;2.77;;;21.90;39.20;;;;;;5036461;28;20458;-61
2021/06/01 10:31:05;;;;;;;4.63;2.93;;;22.10;39.00;;;;;;5039176;28;20714;-61
2021/06/01 10:33:41;;;;;;;5.27;2.97;;;22.20;37.90;;;;;;5041625;28;20421;-58
2021/06/01 10:42:26;;;;;;;3.37;2.70;;;22.30;38.30;;;;;;5037396;28;20524;-60
2021/06/01 10:50:27;;;;;;;5.33;2.80;;;22.80;37.90;;;;;;5034686;28;20506;-63
2021/06/01 10:53:17;;;;;;;7.60;2.73;;;22.90;36.30;;;;;;5037581;28;20429;-58
2021/06/01 10:55:48;;;;;;;3.67;2.83;;;23.00;36.90;;;;;;5038710;28;20864;-59
2021/06/01 10:58:26;;;;;;;3.70;2.80;;;23.10;36.70;;;;;;5035058;28;20461;-61
2021/06/01 11:04:06;;;;;;;4.10;2.50;;;23.30;36.20;;;;;;5036251;28;20441;-60
2021/06/01 11:07:00;;;;;;;4.10;2.77;;;23.30;34.40;;;;;;5021157;28;20431;-60
2021/06/01 11:09:32;;;;;;;3.23;2.90;;;23.30;35.90;;;;;;5037581;28;20463;-62
2021/06/01 11:11:58;;;;;;;2.43;2.23;;;23.40;36.10;;;;;;5037086;28;20513;-61
2021/06/01 11:14:32;;;;;;;7.80;2.70;;;23.60;37.40;;;;;;5037526;28;20417;-59
2021/06/01 11:16:59;;;;;;;2.90;2.40;;;23.70;37.10;;;;;;5033342;28;20437;-62
2021/06/01 11:19:44;;;;;;;5.50;2.50;;;23.80;37.70;;;;;;5041888;28;20422;-58
2021/06/01 11:22:23;;;;;;;5.37;3.27;;;23.90;38.10;;;;;;5028730;28;20469;-60
2021/06/01 11:36:16;;;;;;;5.00;2.50;;;24.20;36.00;;;;;;5042023;28;20598;-60
2021/06/01 11:38:48;;;;;;;4.57;3.00;;;24.30;36.70;;;;;;5040673;28;20426;-61
2021/06/01 11:42:47;;;;;;;3.37;2.87;;;24.40;36.30;;;;;;5039149;28;20472;-60
2021/06/01 11:44:13;;;;;;;5.63;3.07;;;24.50;35.90;;;;;;5030190;28;20546;-57
2021/06/01 11:46:44;;;;;;;6.40;2.80;;;24.50;36.90;;;;;;5041708;28;20446;-61
2021/06/01 11:51:54;;;;;;;3.60;2.97;;;24.80;35.90;;;;;;5039628;28;20594;-57
2021/06/01 11:54:20;;;;;;;2.00;1.90;;;24.90;37.30;;;;;;5038963;28;21004;-58
2021/06/01 11:57:10;;;;;;;3.57;2.53;;;25.00;35.80;;;;;;5034012;28;20695;-60
2021/06/01 12:19:11;;;;;;;2.77;2.57;;;25.60;35.20;;;;;;5037458;28;20447;-58
2021/06/01 12:21:43;;;;;;;2.60;2.40;;;25.70;35.90;;;;;;5031360;28;21019;-60
2021/06/01 12:24:16;;;;;;;3.00;2.70;;;25.80;34.90;;;;;;5034187;28;20865;-65
2021/06/01 12:35:44;;;;;;;2.43;2.23;;;26.30;32.90;;;;;;5017075;28;20433;-64
2021/06/01 12:46:37;;;;;;;5.00;2.43;;;26.60;32.70;;;;;;5023380;28;20461;-57
2021/06/01 13:22:32;;;;;;;5.23;2.00;;;27.60;29.60;;;;;;5033215;28;20492;-58
2021/06/01 13:30:40;;;;;;;2.70;2.23;;;28.20;29.80;;;;;;5030417;28;20421;-59
2021/06/01 13:46:40;;;;;;;2.63;2.43;;;28.80;29.90;;;;;;5025424;28;20424;-57
2021/06/01 13:49:13;;;;;;;2.70;2.23;;;28.90;29.10;;;;;;5041571;28;20929;-59
2021/06/01 14:00:14;;;;;;;3.10;2.50;;;28.70;29.10;;;;;;5040018;28;20446;-60
2021/06/01 14:10:54;;;;;;;4.53;1.90;;;28.90;27.70;;;;;;5041801;28;20463;-59
2021/06/01 15:10:36;;;;;;;2.57;2.03;;;27.50;29.10;;;;;;5046374;28;20495;-60
2021/06/01 15:53:37;;;;;;;2.00;1.90;;;26.80;28.20;;;;;;5023185;28;20448;-60
2021/06/01 16:29:54;;;;;;;2.73;2.20;;;28.90;26.40;;;;;;5027846;28;20837;-61
2021/06/01 16:32:44;;;;;;;4.70;2.17;;;28.90;25.60;;;;;;5026296;28;20447;-60
2021/06/01 17:08:02;;;;;;;3.70;2.00;;;26.10;26.90;;;;;;5036865;28;20461;-61
2021/06/01 17:13:14;;;;;;;3.17;2.27;;;25.10;27.70;;;;;;5030551;28;20459;-62
2021/06/01 17:15:41;;;;;;;5.13;2.60;;;24.70;28.20;;;;;;5042558;28;20429;-62
2021/06/01 17:23:18;;;;;;;5.93;2.67;;;23.70;29.60;;;;;;5042980;28;20437;-60
2021/06/01 17:36:45;;;;;;;2.23;2.10;;;22.70;29.70;;;;;;5036337;28;20449;-61
2021/06/01 17:39:11;;;;;;;2.43;2.00;;;22.50;30.10;;;;;;5037090;28;20829;-61
2021/06/01 17:41:37;;;;;;;3.13;2.40;;;22.40;30.00;;;;;;5026618;28;20468;-59
2021/06/01 17:44:05;;;;;;;2.50;2.30;;;22.30;29.90;;;;;;5036832;28;20186;-59
2021/06/01 17:46:36;;;;;;;4.47;2.37;;;22.20;30.00;;;;;;5028310;28;20923;-60
2021/06/01 17:49:07;;;;;;;2.60;2.40;;;22.10;30.10;;;;;;5029942;28;20485;-61
2021/06/01 17:51:33;;;;;;;4.13;2.53;;;22.00;30.60;;;;;;5024867;28;20912;-58
2021/06/01 17:54:00;;;;;;;5.20;2.20;;;22.00;31.10;;;;;;5027361;28;20529;-60
2021/06/01 17:56:28;;;;;;;4.53;2.40;;;21.90;30.30;;;;;;5024885;28;20183;-57
2021/06/01 17:58:56;;;;;;;5.53;2.37;;;21.80;30.20;;;;;;5025721;28;21392;-58
2021/06/01 18:01:24;;;;;;;6.23;2.03;;;21.70;30.20;;;;;;5027460;28;20994;-59
2021/06/01 18:04:00;;;;;;;4.23;2.53;;;21.60;30.60;;;;;;5027762;28;20448;-59
2021/06/01 18:06:42;;;;;;;2.50;2.30;;;21.50;31.20;;;;;;5015858;28;20421;-59
2021/06/01 18:37:41;;;;;;;8.93;2.53;;;20.50;34.50;;;;;;5024518;28;20446;-60
2021/06/01 18:43:29;;;;;;;12.93;3.07;;;20.40;35.10;;;;;;5030836;28;20980;-58
2021/06/01 19:02:14;;;;;;;5.67;3.40;;;19.60;37.90;;;;;;5032320;28;20560;-60
2021/06/01 19:24:24;;;;;;;2.77;2.47;;;18.50;40.30;;;;;;5020993;28;20453;-60
2021/06/01 19:51:23;;;;;;;9.80;4.33;;;17.20;43.50;;;;;;5003804;28;20480;-60
2021/06/01 19:53:50;;;;;;;4.43;3.10;;;17.20;43.80;;;;;;5035061;28;20438;-60
2021/06/01 19:56:16;;;;;;;3.30;2.90;;;17.10;43.80;;;;;;5020582;28;20528;-60
2021/06/01 19:58:42;;;;;;;5.63;2.60;;;17.00;43.70;;;;;;5032285;28;20466;-60
2021/06/01 20:01:10;;;;;;;3.47;3.17;;;16.90;43.80;;;;;;5034743;28;20497;-59
2021/06/01 20:03:37;;;;;;;4.30;2.87;;;16.90;44.10;;;;;;5027151;28;20453;-59
2021/06/01 20:06:06;;;;;;;9.40;3.50;;;16.80;44.10;;;;;;5018665;28;20435;-59
2021/06/01 20:08:33;;;;;;;8.57;3.17;;;16.70;44.40;;;;;;5032405;28;20434;-59
2021/06/01 20:10:59;;;;;;;4.30;3.30;;;16.60;45.30;;;;;;5028936;28;20532;-60
2021/06/01 20:13:25;;;;;;;10.20;3.20;;;16.50;44.90;;;;;;5035129;28;20977;-59